M I D A S
Marine Information and Data Acquisition System
Tripno 464 of the Zeeleeuw from 2003-04-17 06:31:34 to 2003-04-17 14:26:05
Back to CruiseResearch ActivitiesStationsMapUnderway DataData graphs

EquipmentUnitsComment
TimeDGPSUTC
LatitudeDGPSDM.mWGS84
LongitudeDGPSDM.mWGS84
HeadingGyrodeg 
SOGDGPSknotsSpeed over ground
COGDGPSdegCourse over ground
DepthEcho soundermeters200 kHz
Missing or incorrect values are displayed as -999
Navigation data collected by the RV Zeeleeuw from 2003-04-17 06:31:34 to 2003-04-17 14:26:05
                                                                                    Next 1000 lines
Time Latitude Longitude Heading SOG COG Depth
2003-04-17 06:31:42 51°13.7 2°55.77 11.6 2.7   9.7
2003-04-17 06:31:48 51°13.71 2°55.77 5.4 3 354 9.7
2003-04-17 06:31:52 51°13.71 2°55.76 358.9 3.1 350 9.7
2003-04-17 06:31:58 51°13.71 2°55.76 352.4 3.3 343 9.7
2003-04-17 06:32:02 51°13.72 2°55.76 345.5 3.5 338 9.6
2003-04-17 06:32:08 51°13.72 2°55.75 338.7 3.8 331 9.5
2003-04-17 06:32:12 51°13.73 2°55.75 332.5 4.1 327 9
2003-04-17 06:32:18 51°13.73 2°55.74 328.9 4.5 324 8.2
2003-04-17 06:32:22 51°13.74 2°55.73 327.2 4.8 322 7.9
2003-04-17 06:32:28 51°13.75 2°55.73 326.5 5.2 322 7.7
2003-04-17 06:32:32 51°13.75 2°55.72 326.7 5.4 322 7.6
2003-04-17 06:32:38 51°13.76 2°55.71 327 5.7 322 7.7
2003-04-17 06:32:42 51°13.76 2°55.7 327.1 5.8 322 7.7
2003-04-17 06:32:48 51°13.77 2°55.69 327.2 6.1 322 7.7
2003-04-17 06:32:52 51°13.78 2°55.69 327.3 6.2 322 7.9
2003-04-17 06:32:58 51°13.79 2°55.68 327.7 6.4 323 8
2003-04-17 06:33:02 51°13.79 2°55.67 328.5 6.5 324 8.1
2003-04-17 06:33:08 51°13.8 2°55.66 329.6 6.7 325 8.3
2003-04-17 06:33:12 51°13.81 2°55.65 330.9 6.7 326 8.3
2003-04-17 06:33:18 51°13.82 2°55.64 331.8 6.9 328 8.3
2003-04-17 06:33:22 51°13.82 2°55.64 333.2 6.9 329 8.3
2003-04-17 06:33:28 51°13.83 2°55.63 334.5 7 331 8.4
2003-04-17 06:33:32 51°13.84 2°55.62 335.7 7.1 332 8.3
2003-04-17 06:33:38 51°13.85 2°55.61 336.6 7.2 333 8.2
2003-04-17 06:33:42 51°13.86 2°55.61 337.2 7.2 333 8.1
2003-04-17 06:33:48 51°13.87 2°55.6 337.7 7.3 333 8.1
2003-04-17 06:33:52 51°13.88 2°55.59 338.2 7.4 334 8.1
2003-04-17 06:33:58 51°13.89 2°55.59 338.7 7.4 334 8
2003-04-17 06:34:02 51°13.9 2°55.58 339 7.5 334 8.1
2003-04-17 06:34:08 51°13.91 2°55.57 339.3 7.5 335 8.1
2003-04-17 06:34:12 51°13.92 2°55.57 339.1 7.5 334 8.2
2003-04-17 06:34:18 51°13.93 2°55.56 339.1 7.5 334 8.2
2003-04-17 06:34:22 51°13.93 2°55.55 339.3 7.5 335 8.2
2003-04-17 06:34:28 51°13.95 2°55.54 339.6 7.6 335 8.2
2003-04-17 06:34:32 51°13.95 2°55.54 340.2 7.6 335 8.2
2003-04-17 06:34:38 51°13.97 2°55.53 340.9 7.6 336 8.3
2003-04-17 06:34:42 51°13.97 2°55.52 341 7.6 336 8.2
2003-04-17 06:34:48 51°13.98 2°55.52 340.6 7.6 336 8.2
2003-04-17 06:34:52 51°13.99 2°55.51 340 7.6 335 8.1
2003-04-17 06:34:58 51°14 2°55.5 339.6 7.6 335 8.1
2003-04-17 06:35:02 51°14.01 2°55.5 339.7 7.6 335 8
2003-04-17 06:35:08 51°14.02 2°55.49 340.2 7.6 335 8
2003-04-17 06:35:12 51°14.03 2°55.48 340.1 7.6 335 8
2003-04-17 06:35:18 51°14.04 2°55.47 339.8 7.6 335 7.8
2003-04-17 06:35:22 51°14.05 2°55.47 339.8 7.6 335 7.6
2003-04-17 06:35:28 51°14.06 2°55.46 340 7.6 335 7.5
2003-04-17 06:35:32 51°14.07 2°55.45 339.6 7.6 334 7.7
2003-04-17 06:35:38 51°14.08 2°55.44 339.1 7.6 334 8
2003-04-17 06:35:42 51°14.09 2°55.44 339.3 7.6 334 8.2
2003-04-17 06:35:48 51°14.1 2°55.43 339.6 7.7 335 -999
2003-04-17 06:35:52 51°14.11 2°55.42 339.5 7.7 335 -999
2003-04-17 06:35:58 51°14.12 2°55.41 339.3 7.7 334 8.3
2003-04-17 06:36:02 51°14.13 2°55.41 339.1 7.7 334 -999
2003-04-17 06:36:08 51°14.14 2°55.4 339 7.8 334 -999
2003-04-17 06:36:12 51°14.15 2°55.39 338.7 7.8 334 -999
2003-04-17 06:36:18 51°14.16 2°55.38 337.6 7.9 333 -999
2003-04-17 06:36:22 51°14.17 2°55.38 336.3 8 332 -999
2003-04-17 06:36:28 51°14.18 2°55.37 335.2 8.1 331 -999
2003-04-17 06:36:32 51°14.19 2°55.36 334.3 8.3 330 -999
2003-04-17 06:36:38 51°14.2 2°55.35 332.9 8.4 328 -999
2003-04-17 06:36:42 51°14.21 2°55.34 331.9 8.5 328 -999
2003-04-17 06:36:48 51°14.22 2°55.32 330 8.7 326 -999
2003-04-17 06:36:52 51°14.23 2°55.31 328.6 8.9 324 8.5
2003-04-17 06:36:58 51°14.24 2°55.3 327.1 9 322 8.5
2003-04-17 06:37:02 51°14.24 2°55.29 325.1 9.1 321 -999
2003-04-17 06:37:08 51°14.26 2°55.27 322 9.3 318 -999
2003-04-17 06:37:12 51°14.26 2°55.26 320.3 9.3 317 -999
2003-04-17 06:37:18 51°14.27 2°55.24 319.1 9.4 315 -999
2003-04-17 06:37:22 51°14.28 2°55.23 318.3 9.5 314 -999
2003-04-17 06:37:28 51°14.29 2°55.21 316.9 9.7 312 8.5
2003-04-17 06:37:32 51°14.3 2°55.2 315.6 9.9 311 8.5
2003-04-17 06:37:38 51°14.31 2°55.17 314.1 10.1 309 8.4
2003-04-17 06:37:42 51°14.32 2°55.16 312.8 10.4 308 8.3
2003-04-17 06:37:48 51°14.33 2°55.13 311.6 11 307 8.3
2003-04-17 06:37:52 51°14.34 2°55.12 310.6 11.4 306 -999
2003-04-17 06:37:58 51°14.35 2°55.09 310.7 11.8 307 7.7
2003-04-17 06:38:02 51°14.36 2°55.08 312.4 12 308 8.2
2003-04-17 06:38:08 51°14.37 2°55.05 315 12.2 311 8.4
2003-04-17 06:38:12 51°14.38 2°55.04 316.9 12.4 312 8.4
2003-04-17 06:38:18 51°14.39 2°55.01 317.9 12.7 313 8.3
2003-04-17 06:38:22 51°14.4 2°54.99 318.4 12.8 313 8.4
2003-04-17 06:38:28 51°14.42 2°54.97 319.2 13.1 314 8.3
2003-04-17 06:38:32 51°14.43 2°54.95 321 13.2 315 8.4
2003-04-17 06:38:38 51°14.45 2°54.93 322.9 13.3 316 8.3
2003-04-17 06:38:42 51°14.46 2°54.91 323.2 13.3 316 8
2003-04-17 06:38:48 51°14.47 2°54.89 323.5 13.4 316 7.9
2003-04-17 06:38:52 51°14.48 2°54.87 323.7 13.4 315 7.8
2003-04-17 06:38:58 51°14.5 2°54.84 322.9 13.5 313 7.7
2003-04-17 06:39:02 51°14.51 2°54.83 323.1 13.5 313 5.7
2003-04-17 06:39:08 51°14.52 2°54.8 324.3 13.5 313 7.7
2003-04-17 06:39:12 51°14.54 2°54.78 324.5 13.4 314 7.7
2003-04-17 06:39:18 51°14.55 2°54.76 326.6 13.3 318 7.6
2003-04-17 06:39:22 51°14.56 2°54.75 329.6 13.3 320 7.6
2003-04-17 06:39:28 51°14.58 2°54.73 332.1 13.2 322 7.5
2003-04-17 06:39:32 51°14.59 2°54.71 332.9 13.1 323 7.5
2003-04-17 06:39:38 51°14.61 2°54.69 333.5 13.1 324 7.4
2003-04-17 06:39:42 51°14.62 2°54.68 335.5 13 325 5.6
2003-04-17 06:39:48 51°14.64 2°54.66 336 13 326 7.4
2003-04-17 06:39:52 51°14.65 2°54.65 337.1 12.9 327 7.4
2003-04-17 06:39:58 51°14.67 2°54.63 337.5 12.9 327 7.3
2003-04-17 06:40:02 51°14.68 2°54.62 338.4 12.8 328 7.4
2003-04-17 06:40:08 51°14.7 2°54.6 338.8 12.8 328 7.4
2003-04-17 06:40:12 51°14.71 2°54.59 338.8 12.8 328 7.3
2003-04-17 06:40:18 51°14.73 2°54.57 338.8 12.8 328 7.4
2003-04-17 06:40:22 51°14.74 2°54.56 338.6 12.9 328 5.5
2003-04-17 06:40:28 51°14.76 2°54.54 338 12.9 327 5.5
2003-04-17 06:40:32 51°14.77 2°54.53 337.5 12.9 326 7.2
2003-04-17 06:40:38 51°14.79 2°54.51 337 12.8 326 7.3
2003-04-17 06:40:42 51°14.8 2°54.5 336.7 12.8 326 7.4
2003-04-17 06:40:48 51°14.82 2°54.48 336.8 12.8 326 7.2
2003-04-17 06:40:52 51°14.83 2°54.46 337.3 12.8 327 7.3
2003-04-17 06:40:58 51°14.85 2°54.45 337.9 12.7 328 7.3
2003-04-17 06:41:02 51°14.86 2°54.44 338.7 12.7 329 7.2
2003-04-17 06:41:08 51°14.88 2°54.42 339.4 12.7 330 7.2
2003-04-17 06:41:12 51°14.89 2°54.41 339.8 12.6 331 7.1
2003-04-17 06:41:18 51°14.91 2°54.39 340 12.6 331 7
2003-04-17 06:41:22 51°14.92 2°54.38 340 12.6 331 7
2003-04-17 06:41:28 51°14.94 2°54.36 339.6 12.5 330 6.8
2003-04-17 06:41:32 51°14.95 2°54.35 338.8 12.4 329 6.7
2003-04-17 06:41:38 51°14.97 2°54.34 338 12.3 328 6.7
2003-04-17 06:41:42 51°14.98 2°54.32 337.3 12.2 328 6.7
2003-04-17 06:41:48 51°15 2°54.31 336.3 12.2 327 6.6
2003-04-17 06:41:52 51°15.01 2°54.29 335.8 12.1 326 6.5
2003-04-17 06:41:58 51°15.03 2°54.28 335.8 12.1 326 6.6
2003-04-17 06:42:02 51°15.04 2°54.26 335.7 12.1 326 6.5
2003-04-17 06:42:08 51°15.05 2°54.25 336 12.1 326 6.6
2003-04-17 06:42:12 51°15.07 2°54.23 336.4 12.1 326 6.6
2003-04-17 06:42:18 51°15.08 2°54.22 336.5 12.1 326 6.6
2003-04-17 06:42:22 51°15.09 2°54.2 336.5 12.1 326 6.6
2003-04-17 06:42:28 51°15.11 2°54.19 337 12.2 326 6.7
2003-04-17 06:42:32 51°15.12 2°54.17 337.5 12.2 327 6.8
2003-04-17 06:42:38 51°15.14 2°54.16 337.9 12.3 327 6.8
2003-04-17 06:42:42 51°15.15 2°54.15 338.1 12.3 327 6.9
2003-04-17 06:42:48 51°15.17 2°54.13 337.6 12.4 326 7
2003-04-17 06:42:52 51°15.18 2°54.11 337.1 12.5 326 7.1
2003-04-17 06:42:58 51°15.2 2°54.09 336.6 12.6 325 7.1
2003-04-17 06:43:02 51°15.21 2°54.08 335.8 12.7 325 7.1
2003-04-17 06:43:08 51°15.23 2°54.06 335.3 12.7 324 7.2
2003-04-17 06:43:12 51°15.24 2°54.05 335 12.8 323 7.4
2003-04-17 06:43:18 51°15.25 2°54.03 334.5 12.8 323 7.6
2003-04-17 06:43:22 51°15.27 2°54.01 334.5 12.9 323 7.4
2003-04-17 06:43:28 51°15.28 2°53.99 335 12.9 324 7.4
2003-04-17 06:43:32 51°15.3 2°53.98 335.4 12.9 324 7.5
2003-04-17 06:43:38 51°15.31 2°53.96 336.1 12.9 325 7.5
2003-04-17 06:43:42 51°15.32 2°53.95 336.4 13 325 5.6
2003-04-17 06:43:48 51°15.34 2°53.93 336.9 13 326 7.7
2003-04-17 06:43:52 51°15.35 2°53.92 336.8 13.1 325 7.6
2003-04-17 06:43:58 51°15.37 2°53.9 336.2 13.1 325 7.7
2003-04-17 06:44:02 51°15.38 2°53.88 336 13.2 325 7.8
2003-04-17 06:44:08 51°15.4 2°53.86 336.2 13.2 325 8
2003-04-17 06:44:12 51°15.42 2°53.85 337 13.3 326 7.9
2003-04-17 06:44:18 51°15.43 2°53.83 337.2 13.3 326 8
2003-04-17 06:44:22 51°15.45 2°53.82 337.2 13.3 326 8.1
2003-04-17 06:44:28 51°15.46 2°53.8 337.2 13.4 326 8.1
2003-04-17 06:44:32 51°15.48 2°53.78 336.9 13.4 325 8.2
2003-04-17 06:44:38 51°15.49 2°53.76 336.6 13.5 325 8.3
2003-04-17 06:44:42 51°15.51 2°53.75 335.1 13.5 324 8.3
2003-04-17 06:44:48 51°15.52 2°53.73 334.5 13.6 323 8.4
2003-04-17 06:44:52 51°15.54 2°53.71 334.5 13.6 323 8.5
2003-04-17 06:44:58 51°15.56 2°53.69 335.3 13.6 324 8.6
2003-04-17 06:45:02 51°15.57 2°53.68 336.6 13.6 326 8.7
2003-04-17 06:45:08 51°15.59 2°53.66 338 13.6 327 8.8
2003-04-17 06:45:12 51°15.6 2°53.65 339.3 13.6 328 8.8
2003-04-17 06:45:18 51°15.62 2°53.63 340.2 13.7 329 8.9
2003-04-17 06:45:22 51°15.63 2°53.62 341 13.6 330 9
2003-04-17 06:45:28 51°15.65 2°53.6 341.2 13.7 330 9
2003-04-17 06:45:32 51°15.67 2°53.59 341.8 13.6 330 9.1
2003-04-17 06:45:38 51°15.69 2°53.57 341.9 13.7 330 9.3
2003-04-17 06:45:42 51°15.7 2°53.56 341.6 13.7 330 9.2
2003-04-17 06:45:48 51°15.72 2°53.54 340.9 13.8 329 9.3
2003-04-17 06:45:52 51°15.73 2°53.52 340.4 13.8 329 9.4
2003-04-17 06:45:58 51°15.75 2°53.5 340.4 13.8 329 9.4
2003-04-17 06:46:02 51°15.76 2°53.49 340 13.8 329 9.4
2003-04-17 06:46:08 51°15.78 2°53.47 340.4 13.8 329 9.6
2003-04-17 06:46:12 51°15.8 2°53.46 340.7 13.8 329 9.6
2003-04-17 06:46:18 51°15.82 2°53.44 341.5 13.8 330 9.6
2003-04-17 06:46:22 51°15.83 2°53.43 342.2 13.8 331 9.7
2003-04-17 06:46:28 51°15.85 2°53.41 343 13.7 332 9.7
2003-04-17 06:46:32 51°15.86 2°53.4 343.5 13.7 332 9.8
2003-04-17 06:46:38 51°15.88 2°53.39 343.8 13.7 332 9.8
2003-04-17 06:46:42 51°15.9 2°53.37 344 13.7 332 9.9
2003-04-17 06:46:48 51°15.92 2°53.36 344 13.7 332 9.9
2003-04-17 06:46:52 51°15.93 2°53.35 343.8 13.7 332 9.9
2003-04-17 06:46:58 51°15.95 2°53.33 343.6 13.7 332 9.9
2003-04-17 06:47:02 51°15.97 2°53.32 343.5 13.7 332 10
2003-04-17 06:47:08 51°15.99 2°53.3 343.3 13.6 332 9.9
2003-04-17 06:47:12 51°16 2°53.29 343.4 13.6 332 10
2003-04-17 06:47:18 51°16.02 2°53.27 343.3 13.6 332 10
2003-04-17 06:47:22 51°16.03 2°53.26 343.2 13.7 332 10
2003-04-17 06:47:28 51°16.05 2°53.24 343.1 13.7 332 10
2003-04-17 06:47:32 51°16.07 2°53.23 343.3 13.7 332 10.1
2003-04-17 06:47:38 51°16.09 2°53.22 343.5 13.6 332 10.1
2003-04-17 06:47:42 51°16.1 2°53.21 343.5 13.6 332 10.1
2003-04-17 06:47:48 51°16.12 2°53.19 343.8 13.6 333 10.1
2003-04-17 06:47:52 51°16.13 2°53.18 343.9 13.6 333 10.1
2003-04-17 06:47:58 51°16.15 2°53.16 343.9 13.6 333 10.1
2003-04-17 06:48:02 51°16.17 2°53.15 343.5 13.6 332 10.2
2003-04-17 06:48:08 51°16.19 2°53.13 343.3 13.6 332 10.2
2003-04-17 06:48:12 51°16.2 2°53.12 343.3 13.6 332 10.2
2003-04-17 06:48:18 51°16.22 2°53.1 343.3 13.6 332 10.1
2003-04-17 06:48:22 51°16.23 2°53.09 343.3 13.6 332 10.2
2003-04-17 06:48:28 51°16.25 2°53.08 343.3 13.5 332 10.2
2003-04-17 06:48:32 51°16.27 2°53.06 343.2 13.5 332 10.2
2003-04-17 06:48:38 51°16.29 2°53.05 343 13.5 332 10.2
2003-04-17 06:48:42 51°16.3 2°53.04 343.3 13.5 332 10.2
2003-04-17 06:48:48 51°16.32 2°53.02 343.6 13.5 332 10.2
2003-04-17 06:48:52 51°16.33 2°53.01 343.7 13.5 332 10.2
2003-04-17 06:48:58 51°16.35 2°52.99 343.7 13.5 332 10.2
2003-04-17 06:49:02 51°16.36 2°52.98 343.6 13.5 332 10.2
2003-04-17 06:49:08 51°16.38 2°52.96 343.7 13.5 332 10.2
2003-04-17 06:49:12 51°16.4 2°52.95 343.7 13.5 332 10.3
2003-04-17 06:49:18 51°16.42 2°52.94 343.8 13.5 332 10.2
2003-04-17 06:49:22 51°16.43 2°52.93 343.9 13.5 332 10.2
2003-04-17 06:49:28 51°16.45 2°52.91 343.9 13.5 332 10.2
2003-04-17 06:49:32 51°16.46 2°52.9 343.9 13.4 332 10.2
2003-04-17 06:49:38 51°16.48 2°52.88 343.6 13.5 332 10.1
2003-04-17 06:49:42 51°16.5 2°52.87 343.6 13.5 332 10.1
2003-04-17 06:49:48 51°16.52 2°52.85 343.7 13.5 332 10
2003-04-17 06:49:52 51°16.53 2°52.84 343.8 13.5 332 10
2003-04-17 06:49:58 51°16.55 2°52.82 344 13.5 332 9.9
2003-04-17 06:50:02 51°16.56 2°52.81 344.2 13.5 333 9.9
2003-04-17 06:50:08 51°16.58 2°52.8 344.6 13.4 333 9.7
2003-04-17 06:50:12 51°16.6 2°52.79 344.5 13.4 333 9.7
2003-04-17 06:50:18 51°16.62 2°52.77 344.3 13.3 334 9.6
2003-04-17 06:50:22 51°16.63 2°52.76 344.7 13.3 335 9.5
2003-04-17 06:50:28 51°16.65 2°52.75 345.3 13.3 336 9.4
2003-04-17 06:50:32 51°16.66 2°52.74 345.5 13.2 337 9.3
2003-04-17 06:50:38 51°16.68 2°52.73 345.4 13.2 337 9.2
2003-04-17 06:50:42 51°16.7 2°52.72 344.7 13.2 337 9
2003-04-17 06:50:48 51°16.72 2°52.7 344.1 13.2 336 8.8
2003-04-17 06:50:52 51°16.73 2°52.69 343.5 13.1 336 8.7
2003-04-17 06:50:58 51°16.75 2°52.68 344 13 337 8.3
2003-04-17 06:51:02 51°16.76 2°52.67 346.1 12.9 338 7.8
2003-04-17 06:51:08 51°16.78 2°52.66 347.8 12.7 340 7.7
2003-04-17 06:51:12 51°16.8 2°52.65 349.3 12.6 342 7.9
2003-04-17 06:51:18 51°16.82 2°52.64 350.8 12.5 343 8
2003-04-17 06:51:22 51°16.83 2°52.64 352 12.5 344 7.9
2003-04-17 06:51:28 51°16.85 2°52.63 353.3 12.6 345 7.7
2003-04-17 06:51:32 51°16.86 2°52.63 354.1 12.6 346 7.5
2003-04-17 06:51:38 51°16.88 2°52.62 354.3 12.5 346 7.9
2003-04-17 06:51:42 51°16.9 2°52.61 354.8 12.4 347 7.8
2003-04-17 06:51:48 51°16.92 2°52.61 355.2 12.4 347 7.9
2003-04-17 06:51:52 51°16.93 2°52.6 355.7 12.4 348 8
2003-04-17 06:51:58 51°16.95 2°52.59 356.2 12.6 348 8.2
2003-04-17 06:52:02 51°16.97 2°52.59 355.9 12.7 347 8.2
2003-04-17 06:52:08 51°16.99 2°52.58 355 12.8 346 8.2
2003-04-17 06:52:12 51°17 2°52.57 354.6 12.8 346 8
2003-04-17 06:52:18 51°17.02 2°52.57 353.5 12.8 345 7.8
2003-04-17 06:52:22 51°17.03 2°52.56 353.4 12.7 345 7.8
2003-04-17 06:52:28 51°17.05 2°52.55 353 12.6 344 7.6
2003-04-17 06:52:32 51°17.07 2°52.54 352.7 12.5 344 7.6
2003-04-17 06:52:38 51°17.09 2°52.53 352.3 12.4 343 7.6
2003-04-17 06:52:42 51°17.1 2°52.53 351.9 12.4 343 5.7
2003-04-17 06:52:48 51°17.12 2°52.52 351.6 12.5 343 5.6
2003-04-17 06:52:52 51°17.13 2°52.51 351.4 12.6 343 7.6
2003-04-17 06:52:58 51°17.15 2°52.5 351.4 12.6 343 7.7
2003-04-17 06:53:02 51°17.17 2°52.5 351.9 12.6 343 7.8
2003-04-17 06:53:08 51°17.19 2°52.49 352 12.6 343 7.9
2003-04-17 06:53:12 51°17.2 2°52.48 351.7 12.6 343 8
2003-04-17 06:53:18 51°17.22 2°52.47 351.9 12.7 343 8
2003-04-17 06:53:22 51°17.23 2°52.46 352.6 12.7 344 8.2
2003-04-17 06:53:28 51°17.25 2°52.46 353.4 12.7 345 8.1
2003-04-17 06:53:32 51°17.27 2°52.45 354.1 12.7 345 8.2
2003-04-17 06:53:38 51°17.29 2°52.44 354.1 12.7 346 8.3
2003-04-17 06:53:42 51°17.3 2°52.44 355 12.8 346 8.2
2003-04-17 06:53:48 51°17.32 2°52.43 355.5 12.8 346 8.3
2003-04-17 06:53:52 51°17.34 2°52.42 355.5 12.8 346 8.3
2003-04-17 06:53:58 51°17.36 2°52.41 355.5 12.8 346 8.2
2003-04-17 06:54:02 51°17.37 2°52.41 354.8 12.8 345 8.4
2003-04-17 06:54:08 51°17.39 2°52.4 354.1 12.8 345 8.3
2003-04-17 06:54:12 51°17.41 2°52.39 353.2 12.8 344 8.3
2003-04-17 06:54:18 51°17.43 2°52.38 353 12.8 344 8.4
2003-04-17 06:54:22 51°17.44 2°52.38 354.1 12.8 345 8.4
2003-04-17 06:54:28 51°17.46 2°52.37 355.2 12.8 346 8.6
2003-04-17 06:54:32 51°17.48 2°52.37 356.6 12.8 347 8.5
2003-04-17 06:54:38 51°17.5 2°52.36 357.5 12.8 349 8.6
2003-04-17 06:54:42 51°17.51 2°52.36 358.3 12.8 349 8.5
2003-04-17 06:54:48 51°17.53 2°52.35 358.9 12.7 350 8.6
2003-04-17 06:54:52 51°17.54 2°52.35 359.6 12.7 350 8.7
2003-04-17 06:54:58 51°17.57 2°52.34 0.7 12.7 351 8.6
2003-04-17 06:55:02 51°17.58 2°52.34 1.4 12.7 352 8.5
2003-04-17 06:55:08 51°17.6 2°52.34 2.1 12.7 353 8.6
2003-04-17 06:55:12 51°17.61 2°52.33 3.8 12.6 355 8.4
2003-04-17 06:55:18 51°17.64 2°52.33 4.4 12.6 356 8.5
2003-04-17 06:55:22 51°17.65 2°52.33 5.3 12.6 356 8.5
2003-04-17 06:55:28 51°17.67 2°52.33 5.9 12.6 357 8.5
2003-04-17 06:55:32 51°17.68 2°52.33 6.6 12.6 357 8.4
2003-04-17 06:55:38 51°17.71 2°52.33 6.5 12.6 357 8.6
2003-04-17 06:55:42 51°17.72 2°52.33 6.5 12.6 357 8.5
2003-04-17 06:55:48 51°17.74 2°52.32 6.4 12.6 357 8.5
2003-04-17 06:55:52 51°17.75 2°52.32 6 12.6 356 8.6
2003-04-17 06:55:58 51°17.77 2°52.32 5.6 12.6 356 8.5
2003-04-17 06:56:02 51°17.79 2°52.32 6.5 12.6 357 8.6
2003-04-17 06:56:08 51°17.81 2°52.32 7.8 12.6 358 8.6
2003-04-17 06:56:12 51°17.82 2°52.32 8.7 12.6 359 8.6
2003-04-17 06:56:18 51°17.84 2°52.32 9.6 12.5   8.7
2003-04-17 06:56:22 51°17.86 2°52.32 10.3 12.5 1 8.6
2003-04-17 06:56:28 51°17.88 2°52.32 11.1 12.5 3 8.6
2003-04-17 06:56:32 51°17.89 2°52.33 13.2 12.5 5 8.7
2003-04-17 06:56:38 51°17.91 2°52.33 16.1 12.4 8 8.7
2003-04-17 06:56:42 51°17.93 2°52.34 18.4 12.4 10 8.6
2003-04-17 06:56:48 51°17.95 2°52.34 20.4 12.4 13 8.7
2003-04-17 06:56:52 51°17.96 2°52.35 21.9 12.4 14 8.7
2003-04-17 06:56:58 51°17.98 2°52.36 23.1 12.4 15 8.8
2003-04-17 06:57:02 51°17.99 2°52.36 23.7 12.4 16 8.9
2003-04-17 06:57:08 51°18.01 2°52.37 24.5 12.3 16 8.8
2003-04-17 06:57:12 51°18.03 2°52.38 25 12.3 17 8.8
2003-04-17 06:57:18 51°18.05 2°52.39 25.4 12.3 17 8.8
2003-04-17 06:57:22 51°18.06 2°52.4 25.5 12.3 17 8.9
2003-04-17 06:57:28 51°18.08 2°52.41 25.3 12.4 17 8.8
2003-04-17 06:57:32 51°18.09 2°52.41 25 12.3 17 8.8
2003-04-17 06:57:38 51°18.11 2°52.42 25.3 12.3 18 8.9
2003-04-17 06:57:42 51°18.12 2°52.43 27.6 12.3 20 8.9
2003-04-17 06:57:48 51°18.14 2°52.44 29.2 12.3 22 8.9
2003-04-17 06:57:52 51°18.15 2°52.45 30.7 12.3 23 9
2003-04-17 06:57:58 51°18.17 2°52.47 32 12.3 25 9
2003-04-17 06:58:02 51°18.19 2°52.48 33 12.3 26 9
2003-04-17 06:58:06 51°18.2 2°52.49 33.6 12.3 26 9
2003-04-17 06:58:12 51°18.22 2°52.5 34.3 12.3 27 9.1
2003-04-17 06:58:18 51°18.23 2°52.52 34.2 12.3 27 9.1
2003-04-17 06:58:22 51°18.25 2°52.53 34.2 12.3 27 9.1
2003-04-17 06:58:28 51°18.26 2°52.54 34.1 12.3 27 9.3
2003-04-17 06:58:32 51°18.28 2°52.55 34.1 12.3 27 9.2
2003-04-17 06:58:38 51°18.3 2°52.56 34.1 12.3 27 9.2
2003-04-17 06:58:42 51°18.31 2°52.57 34.1 12.3 26 9.2
2003-04-17 06:58:48 51°18.33 2°52.59 33.9 12.3 26 9.2
2003-04-17 06:58:52 51°18.34 2°52.6 33.5 12.3 26 9.3
2003-04-17 06:58:58 51°18.36 2°52.61 33.3 12.3 26 9.3
2003-04-17 06:59:02 51°18.37 2°52.62 33.3 12.3 26 9.4
2003-04-17 06:59:08 51°18.39 2°52.64 33.3 12.3 26 9.4
2003-04-17 06:59:12 51°18.4 2°52.65 33.8 12.3 26 9.3
2003-04-17 06:59:18 51°18.42 2°52.66 33.7 12.3 26 9.4
2003-04-17 06:59:22 51°18.43 2°52.67 33.7 12.3 26 9.4
2003-04-17 06:59:28 51°18.45 2°52.68 33.8 12.3 26 9.5
2003-04-17 06:59:32 51°18.46 2°52.69 33.9 12.3 26 9.5
2003-04-17 06:59:38 51°18.48 2°52.71 33.9 12.3 26 9.5
2003-04-17 06:59:42 51°18.49 2°52.72 33.5 12.3 26 9.5
2003-04-17 06:59:48 51°18.51 2°52.73 33.1 12.4 25 9.5
2003-04-17 06:59:52 51°18.52 2°52.74 32.9 12.4 25 9.5
2003-04-17 06:59:58 51°18.54 2°52.75 33 12.4 25 9.5
2003-04-17 07:00:02 51°18.55 2°52.76 33.3 12.4 25 9.6
2003-04-17 07:00:08 51°18.57 2°52.78 33.6 12.4 26 9.6
2003-04-17 07:00:12 51°18.59 2°52.79 33.6 12.4 26 9.7
2003-04-17 07:00:18 51°18.6 2°52.8 33.4 12.4 25 9.7
2003-04-17 07:00:22 51°18.62 2°52.81 33.3 12.4 25 9.7
2003-04-17 07:00:28 51°18.64 2°52.82 33.1 12.4 25 9.7
2003-04-17 07:00:32 51°18.65 2°52.83 32.9 12.4 25 9.8
2003-04-17 07:00:38 51°18.67 2°52.85 32.8 12.4 25 9.7
2003-04-17 07:00:42 51°18.68 2°52.86 32.6 12.4 25 9.9
2003-04-17 07:00:48 51°18.7 2°52.87 32.8 12.4 25 9.8
2003-04-17 07:00:52 51°18.71 2°52.88 32.9 12.4 25 9.8
2003-04-17 07:00:58 51°18.73 2°52.89 33.1 12.4 25 9.8
2003-04-17 07:01:02 51°18.74 2°52.9 33.2 12.4 25 9.9
2003-04-17 07:01:08 51°18.76 2°52.92 33.3 12.4 26 9.9
2003-04-17 07:01:12 51°18.77 2°52.93 35.5 12.3 28 9.9
2003-04-17 07:01:18 51°18.79 2°52.95 37.3 12.3 30 9.9
2003-04-17 07:01:22 51°18.8 2°52.96 38.4 12.3 31 9.9
2003-04-17 07:01:28 51°18.82 2°52.98 40 12.2 33 10
2003-04-17 07:01:32 51°18.83 2°52.99 40.9 12.2 34 10
2003-04-17 07:01:38 51°18.85 2°53.01 41.5 12.2 35 10.1
2003-04-17 07:01:42 51°18.86 2°53.02 42 12.3 35 10
2003-04-17 07:01:48 51°18.87 2°53.04 42.8 12.2 36 10
2003-04-17 07:01:52 51°18.88 2°53.05 43.1 12.2 36 10
2003-04-17 07:01:58 51°18.9 2°53.07 43 12.2 36 10.1
2003-04-17 07:02:02 51°18.91 2°53.08 42.8 12.2 36 10.1
2003-04-17 07:02:08 51°18.93 2°53.1 42.7 12.2 35 10.1
2003-04-17 07:02:12 51°18.94 2°53.11 42.6 12.2 35 10.1
2003-04-17 07:02:18 51°18.96 2°53.13 42.4 12.2 35 10.2
2003-04-17 07:02:22 51°18.97 2°53.14 42.5 12.2 35 10.1
2003-04-17 07:02:28 51°18.98 2°53.16 42.4 12.2 35 10.2
2003-04-17 07:02:32 51°18.99 2°53.18 42.4 12.2 35 10.2
2003-04-17 07:02:38 51°19.01 2°53.19 42.2 12.3 35 10.3
2003-04-17 07:02:42 51°19.02 2°53.21 42.1 12.2 35 10.3
2003-04-17 07:02:48 51°19.04 2°53.22 42 12.2 34 10.3
2003-04-17 07:02:52 51°19.05 2°53.24 41.8 12.2 34 10.3
2003-04-17 07:02:58 51°19.07 2°53.26 41.8 12.2 34 10.3
2003-04-17 07:03:02 51°19.08 2°53.27 41.5 12.2 34 10.4
2003-04-17 07:03:08 51°19.1 2°53.29 41.9 12.2 34 10.4
2003-04-17 07:03:12 51°19.11 2°53.3 42 12.2 34 10.4
2003-04-17 07:03:18 51°19.12 2°53.32 42 12.2 35 10.4
2003-04-17 07:03:22 51°19.13 2°53.33 42 12.2 35 10.5
2003-04-17 07:03:28 51°19.15 2°53.35 42 12.2 34 10.5
2003-04-17 07:03:32 51°19.16 2°53.36 42 12.2 34 10.5
2003-04-17 07:03:38 51°19.18 2°53.38 41.9 12.3 34 10.6
2003-04-17 07:03:42 51°19.19 2°53.39 41.9 12.3 34 10.7
2003-04-17 07:03:48 51°19.21 2°53.41 42 12.2 34 10.6
2003-04-17 07:03:52 51°19.22 2°53.42 42 12.2 35 10.6
2003-04-17 07:03:58 51°19.24 2°53.44 42.2 12.2 35 10.6
2003-04-17 07:04:02 51°19.25 2°53.45 42.2 12.2 34 10.7
2003-04-17 07:04:08 51°19.26 2°53.47 42 12.2 34 10.7
2003-04-17 07:04:12 51°19.27 2°53.48 42 12.2 34 10.7
2003-04-17 07:04:18 51°19.29 2°53.5 42 12.2 34 10.8
2003-04-17 07:04:22 51°19.3 2°53.51 41.9 12.2 34 10.8
2003-04-17 07:04:28 51°19.32 2°53.53 41.8 12.2 34 10.8
2003-04-17 07:04:32 51°19.33 2°53.54 41.7 12.2 34 10.9
2003-04-17 07:04:38 51°19.35 2°53.56 41.5 12.2 34 10.8
2003-04-17 07:04:42 51°19.36 2°53.57 41.8 12.2 34 10.9
2003-04-17 07:04:48 51°19.38 2°53.59 41.8 12.2 34 10.9
2003-04-17 07:04:52 51°19.39 2°53.6 41.9 12.2 34 10.9
2003-04-17 07:04:58 51°19.4 2°53.62 41.9 12.2 34 10.9
2003-04-17 07:05:02 51°19.41 2°53.63 42 12.2 34 11
2003-04-17 07:05:08 51°19.43 2°53.65 42.1 12.2 34 11
2003-04-17 07:05:12 51°19.44 2°53.66 42.1 12.2 34 11
2003-04-17 07:05:18 51°19.46 2°53.68 42 12.2 34 11
2003-04-17 07:05:22 51°19.47 2°53.69 41.9 12.2 34 11
2003-04-17 07:05:28 51°19.49 2°53.71 41.7 12.2 34 11.1
2003-04-17 07:05:32 51°19.5 2°53.72 41.7 12.2 34 11.1
2003-04-17 07:05:38 51°19.52 2°53.74 41.7 12.2 34 11.2
2003-04-17 07:05:42 51°19.53 2°53.75 41.7 12.2 34 11.1
2003-04-17 07:05:48 51°19.54 2°53.77 41.7 12.2 34 11.2
2003-04-17 07:05:52 51°19.56 2°53.78 41.6 12.2 34 11.2
2003-04-17 07:05:58 51°19.57 2°53.8 41.5 12.2 34 11.2
2003-04-17 07:06:02 51°19.58 2°53.81 41.4 12.1 34 11.3
2003-04-17 07:06:08 51°19.6 2°53.83 41.6 12.1 34 11.3
2003-04-17 07:06:12 51°19.61 2°53.84 41.6 12.1 34 11.3
2003-04-17 07:06:18 51°19.63 2°53.86 41.3 12.1 34 11.4
2003-04-17 07:06:22 51°19.64 2°53.87 41.6 12.1 34 11.4
2003-04-17 07:06:28 51°19.66 2°53.89 41.7 12.1 34 11.4
2003-04-17 07:06:32 51°19.67 2°53.9 41.4 12.1 34 11.5
2003-04-17 07:06:38 51°19.68 2°53.92 41.8 12.1 34 11.5
2003-04-17 07:06:42 51°19.7 2°53.93 41.7 12.1 34 11.5
2003-04-17 07:06:48 51°19.71 2°53.95 41.4 12.1 33 11.5
2003-04-17 07:06:52 51°19.72 2°53.96 41.4 12.1 33 11.6
2003-04-17 07:06:58 51°19.74 2°53.98 41.4 12.1 33 11.6
2003-04-17 07:07:02 51°19.75 2°53.99 41.5 12.1 33 11.6
2003-04-17 07:07:08 51°19.77 2°54.01 41.5 12.1 33 11.7
2003-04-17 07:07:12 51°19.78 2°54.02 41.5 12.1 34 11.6
2003-04-17 07:07:18 51°19.8 2°54.04 41.6 12.1 34 11.7
2003-04-17 07:07:22 51°19.81 2°54.05 41.6 12.1 34 11.7
2003-04-17 07:07:28 51°19.82 2°54.07 41.6 12.1 33 11.8
2003-04-17 07:07:32 51°19.84 2°54.08 41.6 12.1 33 11.7
2003-04-17 07:07:38 51°19.85 2°54.1 41.6 12.1 33 11.8
2003-04-17 07:07:42 51°19.86 2°54.11 41.6 12.1 34 11.8
2003-04-17 07:07:48 51°19.88 2°54.13 41.6 12.1 34 11.8
2003-04-17 07:07:52 51°19.89 2°54.14 41.6 12.1 34 11.9
2003-04-17 07:07:58 51°19.91 2°54.16 41.8 12.1 34 11.9
2003-04-17 07:08:02 51°19.92 2°54.17 41.9 12.1 34 11.8
2003-04-17 07:08:08 51°19.94 2°54.19 41.8 12.1 33 11.8
2003-04-17 07:08:12 51°19.95 2°54.2 41.3 12.1 33 11.9
2003-04-17 07:08:18 51°19.96 2°54.22 41.5 12.1 33 11.9
2003-04-17 07:08:22 51°19.98 2°54.23 41.3 12.1 33 11.7
2003-04-17 07:08:28 51°19.99 2°54.25 41.3 12.1 33 11.5
2003-04-17 07:08:32 51°20 2°54.26 41.3 12 33 11.6
2003-04-17 07:08:38 51°20.02 2°54.27 41.3 12 33 11.4
2003-04-17 07:08:42 51°20.03 2°54.29 41.2 12 33 11.3
2003-04-17 07:08:48 51°20.05 2°54.3 41.1 12 33 11.8
2003-04-17 07:08:52 51°20.06 2°54.32 41.3 12 33 12.3
2003-04-17 07:08:58 51°20.08 2°54.33 41.3 12.1 33 12.3
2003-04-17 07:09:02 51°20.09 2°54.34 41.6 12.1 33 12.4
2003-04-17 07:09:08 51°20.1 2°54.36 41.5 12.2 33 12.6
2003-04-17 07:09:12 51°20.12 2°54.37 41.4 12.2 33 12.6
2003-04-17 07:09:18 51°20.13 2°54.39 41.4 12.1 33 12.7
2003-04-17 07:09:22 51°20.14 2°54.4 41.4 12.1 33 12.7
2003-04-17 07:09:28 51°20.16 2°54.42 41.5 12.1 33 12.7
2003-04-17 07:09:32 51°20.17 2°54.43 41.6 12.1 33 12.7
2003-04-17 07:09:38 51°20.19 2°54.45 41.5 12.1 33 12.7
2003-04-17 07:09:42 51°20.2 2°54.46 41.4 12.1 33 12.7
2003-04-17 07:09:48 51°20.22 2°54.48 41.4 12.1 33 12.9
2003-04-17 07:09:52 51°20.23 2°54.49 41.2 12.1 33 12.9
2003-04-17 07:09:58 51°20.24 2°54.51 41.3 12.1 33 12.8
2003-04-17 07:10:02 51°20.26 2°54.52 41.4 12.1 33 12.9
2003-04-17 07:10:08 51°20.27 2°54.54 41.3 12.1 33 12.8
2003-04-17 07:10:12 51°20.28 2°54.55 41.3 12.1 33 12.9
2003-04-17 07:10:18 51°20.3 2°54.57 41.3 12.1 33 13
2003-04-17 07:10:22 51°20.31 2°54.58 41.3 12.1 33 13.1
2003-04-17 07:10:28 51°20.33 2°54.6 41.4 12.1 33 13.1
2003-04-17 07:10:32 51°20.34 2°54.61 41.5 12.1 33 13
2003-04-17 07:10:38 51°20.36 2°54.63 41.7 12.1 33 13.1
2003-04-17 07:10:42 51°20.37 2°54.64 41.3 12.1 33 13.2
2003-04-17 07:10:48 51°20.38 2°54.66 41.4 12.1 33 13.2
2003-04-17 07:10:52 51°20.4 2°54.67 41.3 12.1 33 13.2
2003-04-17 07:10:58 51°20.41 2°54.68 41.4 12.1 33 13.4
2003-04-17 07:11:02 51°20.42 2°54.7 41.3 12.1 33 13.3
2003-04-17 07:11:08 51°20.44 2°54.71 41.3 12.1 33 13.4
2003-04-17 07:11:12 51°20.45 2°54.72 41.2 12.1 33 13.4
2003-04-17 07:11:18 51°20.47 2°54.74 41 12.1 33 13.4
2003-04-17 07:11:22 51°20.48 2°54.75 41 12.1 33 13.5
2003-04-17 07:11:28 51°20.5 2°54.77 41.2 12.1 33 13.4
2003-04-17 07:11:32 51°20.51 2°54.78 41.3 12.1 33 13.6
2003-04-17 07:11:38 51°20.52 2°54.8 41.3 12.1 33 13.6
2003-04-17 07:11:42 51°20.54 2°54.81 41.3 12.1 33 13.6
2003-04-17 07:11:48 51°20.55 2°54.83 41.2 12.1 33 13.7
2003-04-17 07:11:52 51°20.56 2°54.84 41.3 12.1 33 13.7
2003-04-17 07:11:58 51°20.58 2°54.86 41.3 12.1 33 13.7
2003-04-17 07:12:02 51°20.59 2°54.87 41.7 12.1 34 13.7
2003-04-17 07:12:08 51°20.61 2°54.89 42.7 12 35 13.8
2003-04-17 07:12:12 51°20.62 2°54.9 43.9 12 36 13.8
2003-04-17 07:12:18 51°20.63 2°54.92 44.2 12 37 13.8
2003-04-17 07:12:22 51°20.65 2°54.93 45 12 37 13.9
2003-04-17 07:12:28 51°20.66 2°54.95 44.9 12 38 13.9
2003-04-17 07:12:32 51°20.67 2°54.97 45.5 12 38 13.9
2003-04-17 07:12:38 51°20.69 2°54.99 45.6 12 38 13.9
2003-04-17 07:12:42 51°20.7 2°55 45.7 12 38 14
2003-04-17 07:12:48 51°20.71 2°55.02 46.9 12 40 13.9
2003-04-17 07:12:52 51°20.72 2°55.03 47.3 12 40 13.9
2003-04-17 07:12:58 51°20.74 2°55.06 48 11.9 41 14
2003-04-17 07:13:02 51°20.75 2°55.07 48.6 11.9 41 14.1
2003-04-17 07:13:08 51°20.76 2°55.09 48.9 11.9 43 14.1
2003-04-17 07:13:12 51°20.77 2°55.11 50.2 11.9 43 14
2003-04-17 07:13:18 51°20.79 2°55.13 50.3 11.9 44 14.1
2003-04-17 07:13:22 51°20.8 2°55.14 51.4 11.9 45 14.1
2003-04-17 07:13:28 51°20.81 2°55.17 51.4 11.9 45 14.1
2003-04-17 07:13:32 51°20.82 2°55.18 51.7 11.9 45 14.1
2003-04-17 07:13:38 51°20.83 2°55.2 52 11.9 45 14.1
2003-04-17 07:13:42 51°20.84 2°55.22 52 11.9 45 14.1
2003-04-17 07:13:48 51°20.86 2°55.24 51.6 11.9 45 14.1
2003-04-17 07:13:52 51°20.87 2°55.26 51.6 11.9 45 14.2
2003-04-17 07:13:58 51°20.88 2°55.28 51.7 11.9 45 14.2
2003-04-17 07:14:02 51°20.89 2°55.29 51.6 11.9 45 14.2
2003-04-17 07:14:08 51°20.9 2°55.32 51.7 11.9 45 14.2
2003-04-17 07:14:12 51°20.91 2°55.33 51.8 11.9 45 14.2
2003-04-17 07:14:18 51°20.93 2°55.35 51.8 11.9 45 14.2
2003-04-17 07:14:22 51°20.93 2°55.37 51.5 11.9 45 14.2
2003-04-17 07:14:28 51°20.95 2°55.39 52 11.9 45 14.2
2003-04-17 07:14:32 51°20.96 2°55.41 51.7 11.9 45 14.3
2003-04-17 07:14:38 51°20.97 2°55.43 51.5 11.9 45 14.3
2003-04-17 07:14:42 51°20.98 2°55.44 51.8 11.9 45 14.3
2003-04-17 07:14:48 51°21 2°55.47 51.7 11.9 45 14.3
2003-04-17 07:14:52 51°21 2°55.48 51.7 11.9 45 14.3
2003-04-17 07:14:58 51°21.02 2°55.5 51.5 11.9 45 14.3
2003-04-17 07:15:02 51°21.03 2°55.52 51.5 11.9 45 14.3
2003-04-17 07:15:08 51°21.04 2°55.54 52 11.9 45 14.4
2003-04-17 07:15:12 51°21.05 2°55.55 51.5 11.9 45 14.3
2003-04-17 07:15:18 51°21.07 2°55.58 51.6 11.9 45 14.4
2003-04-17 07:15:22 51°21.07 2°55.59 51.8 11.9 45 14.4
2003-04-17 07:15:28 51°21.09 2°55.61 51.6 11.8 45 14.4
2003-04-17 07:15:32 51°21.1 2°55.63 51.5 11.9 45 14.5
2003-04-17 07:15:38 51°21.11 2°55.65 51.2 11.9 45 14.5
2003-04-17 07:15:42 51°21.12 2°55.67 51.7 11.9 45 14.5
2003-04-17 07:15:48 51°21.14 2°55.69 51.5 11.9 45 14.6
2003-04-17 07:15:52 51°21.14 2°55.7 51.4 11.9 45 14.5
2003-04-17 07:15:58 51°21.16 2°55.73 51.5 11.9 45 14.6
2003-04-17 07:16:02 51°21.17 2°55.74 51.6 11.9 45 14.5
2003-04-17 07:16:08 51°21.18 2°55.76 51.5 11.9 45 14.5
2003-04-17 07:16:12 51°21.19 2°55.78 51.4 11.9 45 14.5
2003-04-17 07:16:18 51°21.21 2°55.8 51.5 11.9 45 14.6
2003-04-17 07:16:22 51°21.21 2°55.81 51.5 11.8 45 14.6
2003-04-17 07:16:28 51°21.23 2°55.84 51.5 11.8 45 14.7
2003-04-17 07:16:32 51°21.24 2°55.85 51.4 11.9 45 14.7
2003-04-17 07:16:38 51°21.25 2°55.87 51.4 11.9 45 14.6
2003-04-17 07:16:42 51°21.26 2°55.89 51.5 11.8 45 14.7
2003-04-17 07:16:48 51°21.27 2°55.91 51.4 11.8 45 14.7
2003-04-17 07:16:52 51°21.28 2°55.93 51.5 11.8 45 14.7
2003-04-17 07:16:58 51°21.3 2°55.95 51.5 11.8 45 14.6
2003-04-17 07:17:02 51°21.31 2°55.96 51.5 11.8 45 14.7
2003-04-17 07:17:08 51°21.32 2°55.98 51.5 11.8 44 14.8
2003-04-17 07:17:12 51°21.33 2°56 51.3 11.8 44 14.7
2003-04-17 07:17:18 51°21.35 2°56.02 51.5 11.8 45 14.8
2003-04-17 07:17:22 51°21.35 2°56.04 51.5 11.8 44 14.7
2003-04-17 07:17:28 51°21.37 2°56.06 51.5 11.8 45 14.8
2003-04-17 07:17:32 51°21.38 2°56.07 51.5 11.8 45 14.7
2003-04-17 07:17:38 51°21.39 2°56.09 51.3 11.8 44 14.9
2003-04-17 07:17:42 51°21.4 2°56.11 51.4 11.8 45 14.9
2003-04-17 07:17:48 51°21.42 2°56.13 51.6 11.8 45 14.8
2003-04-17 07:17:52 51°21.42 2°56.15 51.6 11.8 45 14.8
2003-04-17 07:17:58 51°21.44 2°56.17 51.6 11.8 45 14.9
2003-04-17 07:18:02 51°21.45 2°56.18 51.1 11.8 45 14.9
2003-04-17 07:18:08 51°21.46 2°56.2 51.3 11.8 44 15
2003-04-17 07:18:12 51°21.47 2°56.22 51 11.8 44 15
2003-04-17 07:18:18 51°21.48 2°56.24 51.5 11.8 45 15
2003-04-17 07:18:22 51°21.49 2°56.26 51.5 11.8 45 15
2003-04-17 07:18:28 51°21.51 2°56.28 51.4 11.8 45 15
2003-04-17 07:18:32 51°21.52 2°56.29 51.4 11.8 44 15.1
2003-04-17 07:18:38 51°21.53 2°56.31 51.3 11.7 45 15.1
2003-04-17 07:18:42 51°21.54 2°56.33 51.4 11.7 45 15
2003-04-17 07:18:48 51°21.55 2°56.35 51.4 11.7 45 15.1
2003-04-17 07:18:52 51°21.56 2°56.37 51.4 11.7 45 15.1
2003-04-17 07:18:58 51°21.58 2°56.39 51.4 11.7 45 15.2
2003-04-17 07:19:02 51°21.59 2°56.4 51.3 11.8 44 15.2
2003-04-17 07:19:08 51°21.6 2°56.42 51.4 11.8 45 15.2
2003-04-17 07:19:12 51°21.61 2°56.44 51.4 11.8 44 15.2
2003-04-17 07:19:18 51°21.62 2°56.46 51.3 11.8 44 15.3
2003-04-17 07:19:22 51°21.63 2°56.47 51.3 11.8 44 15.3
2003-04-17 07:19:28 51°21.65 2°56.5 50.9 11.8 44 15.3
2003-04-17 07:19:32 51°21.66 2°56.51 51.5 11.7 44 15.4
2003-04-17 07:19:38 51°21.67 2°56.53 51.6 11.7 44 15.4
2003-04-17 07:19:42 51°21.68 2°56.55 51.5 11.7 44 15.4
2003-04-17 07:19:48 51°21.69 2°56.57 51.5 11.8 45 15.5
2003-04-17 07:19:52 51°21.7 2°56.58 51.4 11.8 44 15.5
2003-04-17 07:19:58 51°21.72 2°56.61 51.6 11.7 45 15.5
2003-04-17 07:20:02 51°21.73 2°56.62 51.3 11.8 44 15.6
2003-04-17 07:20:08 51°21.74 2°56.64 51.3 11.8 44 15.6
2003-04-17 07:20:12 51°21.75 2°56.66 51.3 11.8 44 15.6
2003-04-17 07:20:18 51°21.76 2°56.68 51.2 11.7 44 15.5
2003-04-17 07:20:22 51°21.77 2°56.69 51.2 11.8 44 15.6
2003-04-17 07:20:28 51°21.79 2°56.71 50.8 11.7 44 15.6
2003-04-17 07:20:32 51°21.8 2°56.73 51.4 11.7 44 15.6
2003-04-17 07:20:38 51°21.81 2°56.75 51.6 11.7 45 15.6
2003-04-17 07:20:42 51°21.82 2°56.77 51.6 11.7 45 15.6
2003-04-17 07:20:48 51°21.83 2°56.79 51.5 11.7 45 15.6
2003-04-17 07:20:52 51°21.84 2°56.8 51.5 11.7 44 15.6
2003-04-17 07:20:58 51°21.86 2°56.82 51.2 11.7 44 15.6
2003-04-17 07:21:02 51°21.87 2°56.84 51.4 11.6 44 15.6
2003-04-17 07:21:08 51°21.88 2°56.86 51.5 11.6 45 15.6
2003-04-17 07:21:12 51°21.89 2°56.87 51.4 11.7 44 15.8
2003-04-17 07:21:18 51°21.9 2°56.9 51.2 11.7 45 15.8
2003-04-17 07:21:22 51°21.91 2°56.91 51.5 11.7 45 15.8
2003-04-17 07:21:28 51°21.93 2°56.93 51.5 11.7 45 15.8
2003-04-17 07:21:32 51°21.94 2°56.95 51.7 11.7 45 15.8
2003-04-17 07:21:38 51°21.95 2°56.97 51.5 11.7 45 15.8
2003-04-17 07:21:42 51°21.96 2°56.98 51.4 11.7 45 15.8
2003-04-17 07:21:48 51°21.97 2°57.01 51.5 11.7 45 15.7
2003-04-17 07:21:52 51°21.98 2°57.02 51.4 11.7 45 15.8
2003-04-17 07:21:58 51°21.99 2°57.04 51.4 11.7 46 15.9
2003-04-17 07:22:02 51°22 2°57.06 52.8 11.7 47 15.9
2003-04-17 07:22:08 51°22.02 2°57.08 52.9 11.7 47 15.9
2003-04-17 07:22:12 51°22.03 2°57.1 53.8 11.7 48 15.9
2003-04-17 07:22:18 51°22.04 2°57.12 53.9 11.7 48 15.9
2003-04-17 07:22:22 51°22.05 2°57.14 54.3 11.7 49 15.8
2003-04-17 07:22:28 51°22.06 2°57.16 54.4 11.7 49 15.9
2003-04-17 07:22:32 51°22.07 2°57.17 54.5 11.7 49 15.9
2003-04-17 07:22:38 51°22.08 2°57.2 54.4 11.7 49 15.8
2003-04-17 07:22:42 51°22.09 2°57.21 54.4 11.7 49 15.9
2003-04-17 07:22:48 51°22.1 2°57.24 54.6 11.7 49 15.9
2003-04-17 07:22:52 51°22.11 2°57.25 54.4 11.7 49 16
2003-04-17 07:22:58 51°22.12 2°57.28 54.5 11.7 49 16
2003-04-17 07:23:02 51°22.13 2°57.29 54.6 11.7 49 15.9
2003-04-17 07:23:08 51°22.14 2°57.32 54.8 11.7 49 15.9
2003-04-17 07:23:12 51°22.15 2°57.33 54.5 11.7 49 15.9
2003-04-17 07:23:18 51°22.17 2°57.36 54.4 11.7 49 16.1
2003-04-17 07:23:22 51°22.17 2°57.37 54.5 11.7 50 15.9
2003-04-17 07:23:28 51°22.19 2°57.39 54.4 11.7 49 16
2003-04-17 07:23:32 51°22.19 2°57.41 54.9 11.6 50 16
2003-04-17 07:23:38 51°22.21 2°57.43 56.4 11.6 52 16
2003-04-17 07:23:42 51°22.21 2°57.45 56.6 11.6 52 16.1
2003-04-17 07:23:48 51°22.23 2°57.48 57.4 11.6 54 16.1
2003-04-17 07:23:52 51°22.23 2°57.49 58 11.6 54 16.1
2003-04-17 07:23:58 51°22.24 2°57.52 58.3 11.6 55 16.1
2003-04-17 07:24:02 51°22.25 2°57.54 58.6 11.7 55 16.1
2003-04-17 07:24:08 51°22.26 2°57.56 58.9 11.6 55 16
2003-04-17 07:24:12 51°22.27 2°57.58 59.5 11.6 56 16
2003-04-17 07:24:18 51°22.28 2°57.6 59.3 11.7 55 16
2003-04-17 07:24:22 51°22.29 2°57.62 58.7 11.7 55 16.1
2003-04-17 07:24:28 51°22.3 2°57.65 58.8 11.7 55 16.1
2003-04-17 07:24:32 51°22.31 2°57.66 58.8 11.7 55 16.2
2003-04-17 07:24:38 51°22.32 2°57.69 58.8 11.7 55 16.1
2003-04-17 07:24:42 51°22.33 2°57.71 58.7 11.7 55 16.1
2003-04-17 07:24:48 51°22.34 2°57.73 58.3 11.7 55 16.2
2003-04-17 07:24:52 51°22.34 2°57.75 58.5 11.7 55 16.2
2003-04-17 07:24:58 51°22.36 2°57.77 58.8 11.7 55 16.1
2003-04-17 07:25:02 51°22.36 2°57.79 58.7 11.7 55 16.1
2003-04-17 07:25:08 51°22.37 2°57.82 58.5 11.7 55 16.3
2003-04-17 07:25:12 51°22.38 2°57.83 58.5 11.7 55 16.2
2003-04-17 07:25:18 51°22.39 2°57.86 58.4 11.7 54 16.2
2003-04-17 07:25:22 51°22.4 2°57.87 58.4 11.7 54 16.2
2003-04-17 07:25:28 51°22.41 2°57.9 58.5 11.7 54 16.1
2003-04-17 07:25:32 51°22.42 2°57.92 58.3 11.7 54 16.2
2003-04-17 07:25:38 51°22.43 2°57.94 58.3 11.7 54 16.2
2003-04-17 07:25:42 51°22.44 2°57.96 58.7 11.7 54 16.3
2003-04-17 07:25:48 51°22.45 2°57.98 58.7 11.7 54 16.1
2003-04-17 07:25:52 51°22.46 2°58 58.9 11.7 55 16.1
2003-04-17 07:25:58 51°22.47 2°58.03 58.7 11.7 54 16.2
2003-04-17 07:26:02 51°22.48 2°58.04 58.7 11.7 54 16.2
2003-04-17 07:26:08 51°22.49 2°58.07 58.6 11.7 54 16.2
2003-04-17 07:26:12 51°22.5 2°58.09 58.5 11.7 54 16.2
2003-04-17 07:26:18 51°22.51 2°58.11 59.4 11.7 56 16.2
2003-04-17 07:26:22 51°22.51 2°58.13 59.6 11.7 56 16.2
2003-04-17 07:26:28 51°22.53 2°58.16 60.2 11.7 56 16.1
2003-04-17 07:26:32 51°22.53 2°58.17 60.7 11.7 57 16.1
2003-04-17 07:26:38 51°22.54 2°58.2 60.6 11.7 57 16.1
2003-04-17 07:26:42 51°22.55 2°58.22 61 11.7 57 16.1
2003-04-17 07:26:48 51°22.56 2°58.24 60.7 11.7 57 16
2003-04-17 07:26:52 51°22.57 2°58.26 60.9 11.7 57 16
2003-04-17 07:26:58 51°22.58 2°58.29 60.9 11.7 57 16
2003-04-17 07:27:02 51°22.59 2°58.3 60.5 11.7 57 16
2003-04-17 07:27:08 51°22.6 2°58.33 60.6 11.8 57 16
2003-04-17 07:27:12 51°22.6 2°58.35 60.8 11.8 57 16
2003-04-17 07:27:18 51°22.61 2°58.37 60.9 11.8 57 16
2003-04-17 07:27:22 51°22.62 2°58.39 60.9 11.8 57 16
2003-04-17 07:27:28 51°22.63 2°58.42 60.8 11.7 57 15.9
2003-04-17 07:27:32 51°22.64 2°58.43 60.6 11.7 57 16
2003-04-17 07:27:38 51°22.65 2°58.46 60.5 11.7 57 16
2003-04-17 07:27:42 51°22.66 2°58.48 60.5 11.7 57 15.9
2003-04-17 07:27:48 51°22.67 2°58.5 60.2 11.7 57 16
2003-04-17 07:27:52 51°22.67 2°58.52 60.7 11.7 57 16
2003-04-17 07:27:58 51°22.69 2°58.55 60.5 11.8 57 15.9
2003-04-17 07:28:02 51°22.69 2°58.56 60.2 11.7 57 16
2003-04-17 07:28:08 51°22.7 2°58.59 60.6 11.7 57 16
2003-04-17 07:28:12 51°22.71 2°58.61 60.6 11.7 57 16
2003-04-17 07:28:18 51°22.72 2°58.63 60.4 11.7 57 15.9
2003-04-17 07:28:22 51°22.73 2°58.65 60.3 11.7 57 16
2003-04-17 07:28:28 51°22.74 2°58.68 60.2 11.7 57 16
2003-04-17 07:28:32 51°22.75 2°58.69 60.5 11.8 57 16
2003-04-17 07:28:38 51°22.76 2°58.72 60.6 11.8 57 16
2003-04-17 07:28:42 51°22.76 2°58.74 60.8 11.7 57 16
2003-04-17 07:28:48 51°22.77 2°58.76 60.9 11.7 57 16
2003-04-17 07:28:52 51°22.78 2°58.78 60.8 11.7 57 16
2003-04-17 07:28:58 51°22.79 2°58.81 60.8 11.8 57 16.1
2003-04-17 07:29:02 51°22.8 2°58.83 60.4 11.8 57 16.1
2003-04-17 07:29:08 51°22.81 2°58.85 60.4 11.8 57 16
2003-04-17 07:29:12 51°22.82 2°58.87 60.3 11.8 57 16
2003-04-17 07:29:18 51°22.83 2°58.89 60.2 11.8 56 16
2003-04-17 07:29:22 51°22.84 2°58.91 60.2 11.8 56 16.1
2003-04-17 07:29:28 51°22.85 2°58.94 60.2 11.8 56 16
2003-04-17 07:29:32 51°22.85 2°58.96 60.1 11.8 56 16
2003-04-17 07:29:38 51°22.86 2°58.98 60.2 11.8 57 16
2003-04-17 07:29:42 51°22.87 2°59 60.4 11.8 57 16.1
2003-04-17 07:29:48 51°22.88 2°59.03 60.6 11.8 57 16.1
2003-04-17 07:29:52 51°22.89 2°59.04 60.5 11.8 57 16
2003-04-17 07:29:58 51°22.9 2°59.07 60.6 11.8 57 16
2003-04-17 07:30:02 51°22.91 2°59.09 60.6 11.8 57 16
2003-04-17 07:30:08 51°22.92 2°59.11 60.3 11.8 56 15.9
2003-04-17 07:30:12 51°22.92 2°59.13 60.2 11.8 56 15.9
2003-04-17 07:30:18 51°22.94 2°59.16 60.1 11.8 56 15.9
2003-04-17 07:30:22 51°22.94 2°59.17 60.1 11.8 56 15.9
2003-04-17 07:30:28 51°22.95 2°59.2 61.1 11.7 57 15.9
2003-04-17 07:30:32 51°22.96 2°59.22 61.2 11.7 57 16
2003-04-17 07:30:38 51°22.97 2°59.24 62 11.7 58 15.9
2003-04-17 07:30:42 51°22.98 2°59.26 61.9 11.7 58 15.9
2003-04-17 07:30:48 51°22.99 2°59.29 62.5 11.7 59 15.8
2003-04-17 07:30:52 51°22.99 2°59.31 62.4 11.7 58 15.8
2003-04-17 07:30:58 51°23.01 2°59.33 62.4 11.7 58 15.9
2003-04-17 07:31:02 51°23.01 2°59.35 62.2 11.7 58 15.9
2003-04-17 07:31:08 51°23.02 2°59.38 62.6 11.7 59 15.8
2003-04-17 07:31:12 51°23.03 2°59.39 62.4 11.7 58 15.8
2003-04-17 07:31:18 51°23.04 2°59.42 62.5 11.7 59 15.8
2003-04-17 07:31:22 51°23.05 2°59.44 62.7 11.6 59 15.7
2003-04-17 07:31:28 51°23.06 2°59.46 63 11.6 59 15.7
2003-04-17 07:31:32 51°23.06 2°59.48 62.8 11.4 59 15.7
2003-04-17 07:31:38 51°23.07 2°59.5 62.7 11 59 15.6
2003-04-17 07:31:42 51°23.08 2°59.52 62.6 10.7 59 15.8
2003-04-17 07:31:48 51°23.09 2°59.54 62.4 10.4 59 15.7
2003-04-17 07:31:52 51°23.09 2°59.56 62.3 10.2 58 15.8
2003-04-17 07:31:58 51°23.1 2°59.58 62.2 9.9 58 15.8
2003-04-17 07:32:02 51°23.11 2°59.59 62.5 9.6 59 15.7
2003-04-17 07:32:08 51°23.11 2°59.62 63.5 9.2 61 15.7
2003-04-17 07:32:12 51°23.12 2°59.63 66.7 8.9 64 15.7
2003-04-17 07:32:18 51°23.12 2°59.65 69.6 8.5 68 15.7
2003-04-17 07:32:22 51°23.12 2°59.66 71.2 8.1 70 15.7
2003-04-17 07:32:28 51°23.13 2°59.68 71.6 7.5 71 15.7
2003-04-17 07:32:32 51°23.13 2°59.69 71.1 7.1 71 15.7
2003-04-17 07:32:38 51°23.13 2°59.71 69.9 6.6 69 15.8
2003-04-17 07:32:42 51°23.14 2°59.72 67.3 6.2 67 15.8
2003-04-17 07:32:48 51°23.14 2°59.73 63.8 5.8 62 15.8
2003-04-17 07:32:52 51°23.14 2°59.74 61.6 5.5 60 15.8
2003-04-17 07:32:58 51°23.15 2°59.75 59.9 5.2 57 15.9
2003-04-17 07:33:02 51°23.15 2°59.76 59.1 5.1 56 15.9
2003-04-17 07:33:08 51°23.16 2°59.77 58.7 4.8 56 15.9
2003-04-17 07:33:12 51°23.16 2°59.77 59 4.7 56 15.9
2003-04-17 07:33:18 51°23.16 2°59.78 60 4.5 57 15.9
2003-04-17 07:33:22 51°23.17 2°59.79 60.7 4.4 58 15.9
2003-04-17 07:33:28 51°23.17 2°59.8 61.1 4.2 58 15.9
2003-04-17 07:33:32 51°23.17 2°59.81 61 4.2 58 16
2003-04-17 07:33:38 51°23.18 2°59.81 60.8 4 57 16
2003-04-17 07:33:42 51°23.18 2°59.82 60.4 4 57 15.9
2003-04-17 07:33:48 51°23.18 2°59.83 60.1 3.8 57 16
2003-04-17 07:33:52 51°23.18 2°59.83 59.7 3.8 56 16
2003-04-17 07:33:58 51°23.19 2°59.84 59.3 3.7 55 16
2003-04-17 07:34:02 51°23.19 2°59.85 58.4 3.7 54 16
2003-04-17 07:34:08 51°23.19 2°59.86 58.1 3.6 54 16
2003-04-17 07:34:12 51°23.19 2°59.86 58.3 3.5 54 16
2003-04-17 07:34:18 51°23.2 2°59.87 58.8 3.5 54 16.1
2003-04-17 07:34:22 51°23.2 2°59.87 59.2 3.4 54 16
2003-04-17 07:34:28 51°23.2 2°59.88 59.4 3.4 54 16.1
2003-04-17 07:34:32 51°23.21 2°59.88 59.4 3.3 54 16.1
2003-04-17 07:34:38 51°23.21 2°59.89 59.2 3.3 53 16.1
2003-04-17 07:34:42 51°23.21 2°59.9 58.7 3.2 53 16.1
2003-04-17 07:34:48 51°23.21 2°59.9 58.1 3.2 52 16.1
2003-04-17 07:34:52 51°23.22 2°59.91 57.4 3.1 51 16.1
2003-04-17 07:34:58 51°23.22 2°59.91 56.8 2.9 49 16.1
2003-04-17 07:35:02 51°23.22 2°59.92 56.3 2.8 48 16.1
2003-04-17 07:35:08 51°23.22 2°59.92 56.2 2.6 48 16.1
2003-04-17 07:35:12 51°23.23 2°59.92 56.6 2.5 48 16.1
2003-04-17 07:35:18 51°23.23 2°59.93 57.3 2.4 49 16.1
2003-04-17 07:35:22 51°23.23 2°59.93 58 2.3 50 16.2
2003-04-17 07:35:28 51°23.23 2°59.94 59.3 2.2 52 16.2
2003-04-17 07:35:32 51°23.23 2°59.94 60.7 2.1 54 16.2
2003-04-17 07:35:38 51°23.24 2°59.94 62.5 2 58 16.2
2003-04-17 07:35:42 51°23.24 2°59.95 64.5 2 61 16.2
2003-04-17 07:35:48 51°23.24 2°59.95 66.8 1.9 66 16.2
2003-04-17 07:35:52 51°23.24 2°59.95 69.3 1.8 70 16.2
2003-04-17 07:35:58 51°23.24 2°59.96 71.8 1.8 75 16.2
2003-04-17 07:36:02 51°23.24 2°59.96 73.6 1.7 79 16.2
2003-04-17 07:36:08 51°23.24 2°59.97 75 1.7 84 16.2
2003-04-17 07:36:12 51°23.24 2°59.97 76.2 1.7 87 16.2
2003-04-17 07:36:18 51°23.24 2°59.97 77.4 1.6 91 16.2
2003-04-17 07:36:22 51°23.24 2°59.98 78.3 1.6 93 16.2
2003-04-17 07:36:28 51°23.24 2°59.98 79 1.6 96 16.2
2003-04-17 07:36:32 51°23.24 2°59.98 79.7 1.6 98 16.1
2003-04-17 07:36:38 51°23.24 2°59.99 79.8 1.6 99 16.1
2003-04-17 07:36:42 51°23.24 2°59.99 80.3 1.6 100 16.1
2003-04-17 07:36:48 51°23.24 2°59.99 80.5 1.6 101 16.1
2003-04-17 07:36:52 51°23.24 3°0 80.5 1.5 102 16
2003-04-17 07:36:58 51°23.24 3°0 80.6 1.5 103 16
2003-04-17 07:37:02 51°23.24 3°0 80.5 1.5 103 16.1
2003-04-17 07:37:08 51°23.23 3°0.01 80.3 1.4 104 16.1
2003-04-17 07:37:12 51°23.23 3°0.01 79.9 1.3 105 16.1
2003-04-17 07:37:18 51°23.23 3°0.01 79.8 1.3 106 16.1
2003-04-17 07:37:22 51°23.23 3°0.01 79.6 1.2 107 16
2003-04-17 07:37:28 51°23.23 3°0.02 79.4 1.2 109 16
2003-04-17 07:37:32 51°23.23 3°0.02 79.4 1.1 112 16
2003-04-17 07:37:38 51°23.23 3°0.02 79.4 1.1 115 16
2003-04-17 07:37:42 51°23.23 3°0.02 79.3 1 116 15.9
2003-04-17 07:37:48 51°23.23 3°0.03 79.3 1 118 16
2003-04-17 07:37:52 51°23.23 3°0.03 79.1 0.9 119 16
2003-04-17 07:37:58 51°23.23 3°0.03 79.1 0.8 123 16
2003-04-17 07:38:02 51°23.23 3°0.03 79.1 0.8 126 16
2003-04-17 07:38:08 51°23.23 3°0.03 79.1 0.8 129 15.9
2003-04-17 07:38:12 51°23.23 3°0.03 79.2 0.7 132 16
2003-04-17 07:38:18 51°23.23 3°0.03 79.4 0.7 136 16
2003-04-17 07:38:22 51°23.23 3°0.03 79.7 0.7 140 16
2003-04-17 07:38:28 51°23.22 3°0.03 80.2 0.7 145 15.9
2003-04-17 07:38:32 51°23.22 3°0.03 80.4 0.7 149 16
2003-04-17 07:38:38 51°23.22 3°0.04 80.7 0.7 156 15.9
2003-04-17 07:38:42 51°23.22 3°0.04 81.1 0.7 159 15.9
2003-04-17 07:38:48 51°23.22 3°0.04 81.4 0.7 162 15.9
2003-04-17 07:38:52 51°23.22 3°0.04 81.8 0.7 165 15.9
2003-04-17 07:38:58 51°23.22 3°0.04 82 0.7 169 15.9
2003-04-17 07:39:02 51°23.22 3°0.04 82.1 0.7 173 15.8
2003-04-17 07:39:08 51°23.22 3°0.04 82 0.8 177 15.8
2003-04-17 07:39:12 51°23.22 3°0.04 82 0.8 180 15.8
2003-04-17 07:39:18 51°23.21 3°0.04 81.8 0.8 184 15.8
2003-04-17 07:39:22 51°23.21 3°0.04 81.4 0.8 187 15.8
2003-04-17 07:39:28 51°23.21 3°0.04 80.7 0.8 190 15.9
2003-04-17 07:39:32 51°23.21 3°0.04 80.4 0.8 192 15.9
2003-04-17 07:39:38 51°23.21 3°0.03 80 0.8 196 15.9
2003-04-17 07:39:42 51°23.21 3°0.03 79.5 0.8 198 15.8
2003-04-17 07:39:48 51°23.21 3°0.03 78.9 0.8 202 15.9
2003-04-17 07:39:52 51°23.21 3°0.03 78.4 0.9 203 15.9
2003-04-17 07:39:58 51°23.21 3°0.03 78 0.9 206 15.8
2003-04-17 07:40:02 51°23.2 3°0.03 77.5 0.9 208 15.9
2003-04-17 07:40:08 51°23.2 3°0.03 77.1 0.9 210 15.8
2003-04-17 07:40:12 51°23.2 3°0.03 76.7 0.9 211 15.8
2003-04-17 07:40:18 51°23.2 3°0.03 76.2 0.9 213 15.8
2003-04-17 07:40:22 51°23.2 3°0.03 76.2 0.9 214 15.9
2003-04-17 07:40:28 51°23.2 3°0.02 76.1 0.9 216 15.8
2003-04-17 07:40:32 51°23.2 3°0.02 75.9 1 217 15.8
2003-04-17 07:40:38 51°23.2 3°0.02 76 1 217 15.8
2003-04-17 07:40:42 51°23.2 3°0.02 76.1 1 218 15.8
2003-04-17 07:40:48 51°23.19 3°0.02 76.2 1 218 15.8
2003-04-17 07:40:52 51°23.19 3°0.02 76.3 1.1 218 15.8
2003-04-17 07:40:58 51°23.19 3°0.02 76.5 1.1 218 15.7
2003-04-17 07:41:02 51°23.19 3°0.01 76.8 1.1 218 15.7
2003-04-17 07:41:08 51°23.19 3°0.01 77.1 1.2 219 15.7
2003-04-17 07:41:12 51°23.19 3°0.01 77.6 1.2 220 15.7
2003-04-17 07:41:18 51°23.19 3°0.01 77.7 1.2 220 15.7
2003-04-17 07:41:22 51°23.19 3°0.01 77.9 1.2 220 15.7
2003-04-17 07:41:28 51°23.18 3°0.01 78.1 1.2 220 15.8
2003-04-17 07:41:32 51°23.18 3°0 78.3 1.2 220 15.7
2003-04-17 07:41:38 51°23.18 3°0 78.3 1.2 219 15.8
2003-04-17 07:41:42 51°23.18 3°0 78.3 1.2 220 15.7
2003-04-17 07:41:48 51°23.18 3°0 78.4 1.2 219 15.7
2003-04-17 07:41:52 51°23.18 3°0 78.4 1.2 219 15.7
2003-04-17 07:41:58 51°23.18 3°0 78.4 1.2 218 15.8
2003-04-17 07:42:02 51°23.18 2°59.99 78.4 1.2 218 15.9
2003-04-17 07:42:08 51°23.17 2°59.99 78.3 1.2 219 15.7
2003-04-17 07:42:12 51°23.17 2°59.99 78.2 1.2 218 15.7
2003-04-17 07:42:18 51°23.17 2°59.99 78 1.2 217 15.7
2003-04-17 07:42:22 51°23.17 2°59.99 77.7 1.2 217 15.7
2003-04-17 07:42:28 51°23.17 2°59.99 77.1 1.1 217 15.7
2003-04-17 07:42:32 51°23.17 2°59.98 76.2 1.1 218 15.7
2003-04-17 07:42:38 51°23.17 2°59.98 75.6 1.1 216 15.7
2003-04-17 07:42:42 51°23.16 2°59.98 74.7 1 216 15.6
2003-04-17 07:42:48 51°23.16 2°59.98 73.9 1 216 15.7
2003-04-17 07:42:52 51°23.16 2°59.98 73.3 1 216 15.7
2003-04-17 07:42:58 51°23.16 2°59.98 73 1 215 15.6
2003-04-17 07:43:02 51°23.16 2°59.98 72.6 0.9 215 15.6
2003-04-17 07:43:08 51°23.16 2°59.98 72.5 0.9 214 15.5
2003-04-17 07:43:12 51°23.16 2°59.98 72.5 0.9 214 15.6
2003-04-17 07:43:18 51°23.16 2°59.97 72.5 0.8 212 15.6
2003-04-17 07:43:22 51°23.16 2°59.97 72.7 0.8 209 15.6
2003-04-17 07:43:28 51°23.16 2°59.97 73 0.7 206 15.6
2003-04-17 07:43:32 51°23.16 2°59.97 73.4 0.7 203 15.6
2003-04-17 07:43:38 51°23.15 2°59.97 74 0.7 198 15.6
2003-04-17 07:43:42 51°23.15 2°59.97 74.3 0.6 194 15.5
2003-04-17 07:43:48 51°23.15 2°59.97 74.7 0.6 187 15.5
2003-04-17 07:43:52 51°23.15 2°59.97 75 0.6 185 15.6
2003-04-17 07:43:58 51°23.15 2°59.97 75.2 0.6 180 15.5
2003-04-17 07:44:02 51°23.15 2°59.97 75.4 0.6 177 15.5
2003-04-17 07:44:08 51°23.15 2°59.97 75.4 0.6 171 15.5
2003-04-17 07:44:12 51°23.15 2°59.97 75.8 0.6 168 15.6
2003-04-17 07:44:18 51°23.15 2°59.97 76 0.6 163 15.6
2003-04-17 07:44:22 51°23.15 2°59.97 76.2 0.6 158 15.6
2003-04-17 07:44:28 51°23.15 2°59.97 76.5 0.6 152 15.5
2003-04-17 07:44:32 51°23.15 2°59.98 76.7 0.6 148 15.5
2003-04-17 07:44:38 51°23.14 2°59.98 76.8 0.7 142 15.5
2003-04-17 07:44:42 51°23.14 2°59.98 76.8 0.7 139 15.5
2003-04-17 07:44:48 51°23.14 2°59.98 76.6 0.7 134 15.5
2003-04-17 07:44:52 51°23.14 2°59.98 76.3 0.7 131 15.5
2003-04-17 07:44:58 51°23.14 2°59.98 76.2 0.7 129 15.4
2003-04-17 07:45:02 51°23.14 2°59.98 75.6 0.7 127 15.5
2003-04-17 07:45:08 51°23.14 2°59.98 74.7 0.7 123 15.4
2003-04-17 07:45:12 51°23.14 2°59.99 73.7 0.7 121 15.4
2003-04-17 07:45:18 51°23.14 2°59.99 72.5 0.7 116 15.4
2003-04-17 07:45:22 51°23.14 2°59.99 71.8 0.7 112 15.5
2003-04-17 07:45:28 51°23.14 2°59.99 71.1 0.7 108 15.5
2003-04-17 07:45:32 51°23.14 2°59.99 70.5 0.7 107 15.5
2003-04-17 07:45:38 51°23.14 2°59.99 70.1 0.8 103 15.5
2003-04-17 07:45:42 51°23.14 2°59.99 69.6 0.8 100 15.5
2003-04-17 07:45:48 51°23.14 3°0 69 0.8 95 15.5
2003-04-17 07:45:52 51°23.14 3°0 68.7 0.9 93 15.5
2003-04-17 07:45:58 51°23.14 3°0 68.3 0.9 89 15.5
2003-04-17 07:46:02 51°23.14 3°0 68 0.9 87 15.4
2003-04-17 07:46:08 51°23.14 3°0.01 67.4 1 83 15.4
2003-04-17 07:46:12 51°23.14 3°0.01 67 1 81 15.4
2003-04-17 07:46:18 51°23.14 3°0.01 66.5 1 79 15.5
2003-04-17 07:46:22 51°23.14 3°0.01 66.1 1 77 15.4
2003-04-17 07:46:28 51°23.14 3°0.01 65.7 1.1 76 15.5
2003-04-17 07:46:32 51°23.14 3°0.02 65.4 1.1 76 15.4
2003-04-17 07:46:38 51°23.14 3°0.02 65.1 1.1 74 15.4
2003-04-17 07:46:42 51°23.14 3°0.02 64.7 1.1 73 15.5
2003-04-17 07:46:48 51°23.14 3°0.02 64.4 1.2 71 15.5
2003-04-17 07:46:52 51°23.14 3°0.03 64.1 1.2 71 15.5
2003-04-17 07:46:58 51°23.14 3°0.03 63.7 1.2 70 15.4
2003-04-17 07:47:02 51°23.14 3°0.03 63.2 1.2 68 15.4
2003-04-17 07:47:08 51°23.15 3°0.03 62.8 1.2 66 15.5
2003-04-17 07:47:12 51°23.15 3°0.04 62.4 1.2 65 15.5
2003-04-17 07:47:18 51°23.15 3°0.04 62 1.3 64 15.5
2003-04-17 07:47:22 51°23.15 3°0.04 61.8 1.3 63 15.5
2003-04-17 07:47:28 51°23.15 3°0.04 61.8 1.3 63 15.5
2003-04-17 07:47:32 51°23.15 3°0.05 61.9 1.3 64 15.5
2003-04-17 07:47:38 51°23.15 3°0.05 62.4 1.3 64 15.5
2003-04-17 07:47:42 51°23.15 3°0.05 62.7 1.3 65 15.5
2003-04-17 07:47:48 51°23.15 3°0.06 62.9 1.3 66 15.5
2003-04-17 07:47:52 51°23.15 3°0.06 63 1.3 66 15.5
2003-04-17 07:47:58 51°23.15 3°0.06 63.1 1.3 67 15.5
2003-04-17 07:48:02 51°23.15 3°0.06 63.3 1.3 67 15.5
2003-04-17 07:48:08 51°23.15 3°0.07 63.5 1.2 67 15.5
2003-04-17 07:48:12 51°23.15 3°0.07 63.3 1.2 67 15.5
2003-04-17 07:48:18 51°23.16 3°0.07 62.7 1.1 66 15.5
2003-04-17 07:48:22 51°23.16 3°0.07 61.7 1.1 64 15.5
2003-04-17 07:48:28 51°23.16 3°0.07 60.7 1.1 61 15.6
2003-04-17 07:48:32 51°23.16 3°0.08 59.7 1 61 15.6
2003-04-17 07:48:38 51°23.16 3°0.08 58.9 1 59 15.5
2003-04-17 07:48:42 51°23.16 3°0.08 58.1 1 58 15.5
2003-04-17 07:48:48 51°23.16 3°0.08 57.7 1 56 15.5
2003-04-17 07:48:52 51°23.16 3°0.08 57.4 1 54 15.5
2003-04-17 07:48:58 51°23.16 3°0.09 57.3 1 53 15.5
2003-04-17 07:49:02 51°23.16 3°0.09 57.4 1 54 15.5
2003-04-17 07:49:08 51°23.16 3°0.09 57.4 0.9 53 15.5
2003-04-17 07:49:12 51°23.16 3°0.09 57.3 0.9 53 15.5
2003-04-17 07:49:18 51°23.16 3°0.09 56.9 0.9 51 15.5
2003-04-17 07:49:22 51°23.17 3°0.09 56.6 0.9 50 15.5
2003-04-17 07:49:28 51°23.17 3°0.09 55.9 0.9 45 15.5
2003-04-17 07:49:32 51°23.17 3°0.1 55.3 0.9 44 15.5
2003-04-17 07:49:38 51°23.17 3°0.1 54.6 0.9 41 15.4
2003-04-17 07:49:42 51°23.17 3°0.1 53.8 0.8 38 15.5
2003-04-17 07:49:48 51°23.17 3°0.1 52.9 0.9 34 15.5
2003-04-17 07:49:52 51°23.17 3°0.1 52 0.8 32 15.5
2003-04-17 07:49:58 51°23.17 3°0.1 51.2 0.8 28 15.5
2003-04-17 07:50:02 51°23.17 3°0.1 50.4 0.8 24 15.5
2003-04-17 07:50:08 51°23.17 3°0.1 49.4 0.9 19 15.5
2003-04-17 07:50:12 51°23.18 3°0.1 48.5 0.9 16 15.5
2003-04-17 07:50:18 51°23.18 3°0.1 47.6 0.9 12 15.5
2003-04-17 07:50:22 51°23.18 3°0.1 46.5 0.9 9 15.5
2003-04-17 07:50:28 51°23.18 3°0.1 45.7 0.9 3 15.6
2003-04-17 07:50:32 51°23.18 3°0.1 44.9 0.9   15.5
2003-04-17 07:50:38 51°23.18 3°0.1 43.7 1 355 15.5
2003-04-17 07:50:42 51°23.18 3°0.1 42.7 1 352 15.5
2003-04-17 07:50:48 51°23.18 3°0.1 41.5 1 348 15.5
2003-04-17 07:50:52 51°23.19 3°0.1 40.5 1 345 15.6
2003-04-17 07:50:58 51°23.19 3°0.1 39.9 1.1 343 15.6
2003-04-17 07:51:02 51°23.19 3°0.1 39.5 1.1 341 15.6
2003-04-17 07:51:08 51°23.19 3°0.1 39.2 1.1 339 15.6
2003-04-17 07:51:12 51°23.19 3°0.1 39.3 1.1 339 15.6
2003-04-17 07:51:18 51°23.19 3°0.1 39.9 1.1 338 15.6
2003-04-17 07:51:22 51°23.19 3°0.1 40.7 1 338 15.6
2003-04-17 07:51:28 51°23.2 3°0.1 41.9 1 338 15.6
2003-04-17 07:51:32 51°23.2 3°0.1 43 1 338 15.7
2003-04-17 07:51:38 51°23.2 3°0.09 44.2 0.9 339 15.7
2003-04-17 07:51:42 51°23.2 3°0.09 45.3 0.9 338 15.7
2003-04-17 07:51:48 51°23.2 3°0.09 46.4 0.8 339 15.7
2003-04-17 07:51:52 51°23.2 3°0.09 47.6 0.8 339 15.6
2003-04-17 07:51:58 51°23.2 3°0.09 48.7 0.7 339 15.7
2003-04-17 07:52:02 51°23.2 3°0.09 49.6 0.6 340 15.7
2003-04-17 07:52:08 51°23.2 3°0.09 50.9 0.6 338 15.7
2003-04-17 07:52:12 51°23.2 3°0.09 52 0.5 337 15.7
2003-04-17 07:52:18 51°23.2 3°0.09 53.1 0.4 334 15.7
2003-04-17 07:52:22 51°23.2 3°0.09 54.3 0.4 331 15.7
2003-04-17 07:52:28 51°23.2 3°0.09 55.5 0.3 322 15.8
2003-04-17 07:52:32 51°23.2 3°0.09 56.4 0.2 315 15.8
2003-04-17 07:52:38 51°23.2 3°0.09 57.3 0.2 303 15.8
2003-04-17 07:52:42 51°23.2 3°0.09 58 0.2 292 15.8
2003-04-17 07:52:48 51°23.21 3°0.09 58.7 0.2 276 15.7
2003-04-17 07:52:52 51°23.2 3°0.09 59.4 0.2 266 15.8
2003-04-17 07:52:58 51°23.2 3°0.09 60.2 0.2 248 15.8
2003-04-17 07:53:02 51°23.2 3°0.09 60.9 0.2 242 15.8
2003-04-17 07:53:08 51°23.2 3°0.09 61.6 0.2 232 15.8
2003-04-17 07:53:12 51°23.2 3°0.09 62.2 0.2 226 15.8
2003-04-17 07:53:18 51°23.2 3°0.09 62.7 0.2 220 15.8
2003-04-17 07:53:22 51°23.2 3°0.09 63.2 0.3 214 15.8
2003-04-17 07:53:28 51°23.2 3°0.09 63.8 0.3 209 15.8
2003-04-17 07:53:32 51°23.2 3°0.08 64.3 0.3 206 15.7
2003-04-17 07:53:38 51°23.2 3°0.08 64.8 0.4 202 15.7
2003-04-17 07:53:42 51°23.2 3°0.08 65.4 0.4 201 15.8
2003-04-17 07:53:48 51°23.2 3°0.08 65.7 0.4 201 15.8
2003-04-17 07:53:52 51°23.2 3°0.08 66 0.4 200 15.7
2003-04-17 07:53:58 51°23.2 3°0.08 66.3 0.4 201 15.8
2003-04-17 07:54:02 51°23.2 3°0.08 66.4 0.4 201 15.8
2003-04-17 07:54:08 51°23.2 3°0.08 66.5 0.4 200 15.7
2003-04-17 07:54:12 51°23.2 3°0.08 66.4 0.5 199 15.7
2003-04-17 07:54:18 51°23.2 3°0.08 66.2 0.5 201 15.7
2003-04-17 07:54:22 51°23.2 3°0.08 66 0.5 201 15.7
2003-04-17 07:54:28 51°23.2 3°0.08 65.8 0.5 200 15.7
2003-04-17 07:54:32 51°23.2 3°0.08 65.3 0.5 201 15.8
2003-04-17 07:54:38 51°23.2 3°0.08 65 0.4 204 15.7
2003-04-17 07:54:42 51°23.19 3°0.08 64.5 0.4 205 15.7
2003-04-17 07:54:48 51°23.19 3°0.08 64.2 0.4 206 15.7
2003-04-17 07:54:52 51°23.19 3°0.08 64.2 0.5 204 15.7